sensor_id;sensor_type;location;lat;lon;timestamp;P1;P2;P0
69350;PMS7003;57106;51.446;-2.606;2023-02-11T00:02:00;6;5;
69350;PMS7003;57106;51.446;-2.606;2023-02-11T00:04:25;4;4;
69350;PMS7003;57106;51.446;-2.606;2023-02-11T00:23:49;6;5;
69350;PMS7003;57106;51.446;-2.606;2023-02-11T00:26:16;6;6;
69350;PMS7003;57106;51.446;-2.606;2023-02-11T00:28:39;7;7;
69350;PMS7003;57106;51.446;-2.606;2023-02-11T00:31:05;6;5;
69350;PMS7003;57106;51.446;-2.606;2023-02-11T00:33:32;6;6;
69350;PMS7003;57106;51.446;-2.606;2023-02-11T00:36:02;8;8;
69350;PMS7003;57106;51.446;-2.606;2023-02-11T02:00:52;3;3;
69350;PMS7003;57106;51.446;-2.606;2023-02-11T02:03:19;3;3;
69350;PMS7003;57106;51.446;-2.606;2023-02-11T02:05:44;4;4;
69350;PMS7003;57106;51.446;-2.606;2023-02-11T02:08:10;4;2;
69350;PMS7003;57106;51.446;-2.606;2023-02-11T02:10:35;3;2;
69350;PMS7003;57106;51.446;-2.606;2023-02-11T02:13:00;3;2;
69350;PMS7003;57106;51.446;-2.606;2023-02-11T02:15:27;3;3;
69350;PMS7003;57106;51.446;-2.606;2023-02-11T02:20:27;5;5;
69350;PMS7003;57106;51.446;-2.606;2023-02-11T02:22:46;6;2;
69350;PMS7003;57106;51.446;-2.606;2023-02-11T02:25:18;3;3;
69350;PMS7003;57106;51.446;-2.606;2023-02-11T02:27:36;6;3;
69350;PMS7003;57106;51.446;-2.606;2023-02-11T02:32:28;5;5;
69350;PMS7003;57106;51.446;-2.606;2023-02-11T02:34:52;4;3;
69350;PMS7003;57106;51.446;-2.606;2023-02-11T02:37:16;5;4;
69350;PMS7003;57106;51.446;-2.606;2023-02-11T02:39:41;6;4;
69350;PMS7003;57106;51.446;-2.606;2023-02-11T02:42:08;3;3;
69350;PMS7003;57106;51.446;-2.606;2023-02-11T02:44:32;4;4;
69350;PMS7003;57106;51.446;-2.606;2023-02-11T02:46:58;4;4;
69350;PMS7003;57106;51.446;-2.606;2023-02-11T02:49:24;3;2;
69350;PMS7003;57106;51.446;-2.606;2023-02-11T02:56:40;2;2;
69350;PMS7003;57106;51.446;-2.606;2023-02-11T02:59:12;6;2;
69350;PMS7003;57106;51.446;-2.606;2023-02-11T03:01:33;7;5;
69350;PMS7003;57106;51.446;-2.606;2023-02-11T03:03:58;3;2;
69350;PMS7003;57106;51.446;-2.606;2023-02-11T03:06:24;5;2;
69350;PMS7003;57106;51.446;-2.606;2023-02-11T03:08:48;5;5;
69350;PMS7003;57106;51.446;-2.606;2023-02-11T03:11:14;4;4;
69350;PMS7003;57106;51.446;-2.606;2023-02-11T03:13:38;5;5;
69350;PMS7003;57106;51.446;-2.606;2023-02-11T03:16:06;4;4;
69350;PMS7003;57106;51.446;-2.606;2023-02-11T03:18:30;5;3;
69350;PMS7003;57106;51.446;-2.606;2023-02-11T03:33:06;6;4;
69350;PMS7003;57106;51.446;-2.606;2023-02-11T03:45:12;7;4;
69350;PMS7003;57106;51.446;-2.606;2023-02-11T03:47:37;4;3;
69350;PMS7003;57106;51.446;-2.606;2023-02-11T03:50:02;6;5;
69350;PMS7003;57106;51.446;-2.606;2023-02-11T03:52:28;2;2;
69350;PMS7003;57106;51.446;-2.606;2023-02-11T03:54:54;6;5;
69350;PMS7003;57106;51.446;-2.606;2023-02-11T03:57:19;4;4;
69350;PMS7003;57106;51.446;-2.606;2023-02-11T03:59:52;3;3;
69350;PMS7003;57106;51.446;-2.606;2023-02-11T04:02:10;6;5;
69350;PMS7003;57106;51.446;-2.606;2023-02-11T04:04:36;5;4;
69350;PMS7003;57106;51.446;-2.606;2023-02-11T04:07:01;4;4;
69350;PMS7003;57106;51.446;-2.606;2023-02-11T04:09:27;6;4;
69350;PMS7003;57106;51.446;-2.606;2023-02-11T04:11:53;6;5;
69350;PMS7003;57106;51.446;-2.606;2023-02-11T04:14:18;5;5;
69350;PMS7003;57106;51.446;-2.606;2023-02-11T04:16:44;4;4;
69350;PMS7003;57106;51.446;-2.606;2023-02-11T04:19:09;8;5;
69350;PMS7003;57106;51.446;-2.606;2023-02-11T04:21:37;6;4;
69350;PMS7003;57106;51.446;-2.606;2023-02-11T04:24:00;5;5;
69350;PMS7003;57106;51.446;-2.606;2023-02-11T04:26:25;4;4;
69350;PMS7003;57106;51.446;-2.606;2023-02-11T04:28:51;4;4;
69350;PMS7003;57106;51.446;-2.606;2023-02-11T04:31:17;7;5;
69350;PMS7003;57106;51.446;-2.606;2023-02-11T04:33:42;7;4;
69350;PMS7003;57106;51.446;-2.606;2023-02-11T04:36:08;7;5;
69350;PMS7003;57106;51.446;-2.606;2023-02-11T04:38:33;7;6;
69350;PMS7003;57106;51.446;-2.606;2023-02-11T04:40:59;7;7;
69350;PMS7003;57106;51.446;-2.606;2023-02-11T04:43:25;7;5;
69350;PMS7003;57106;51.446;-2.606;2023-02-11T04:45:50;10;8;
69350;PMS7003;57106;51.446;-2.606;2023-02-11T04:48:16;10;7;
69350;PMS7003;57106;51.446;-2.606;2023-02-11T04:50:41;6;6;
69350;PMS7003;57106;51.446;-2.606;2023-02-11T04:53:07;8;6;
69350;PMS7003;57106;51.446;-2.606;2023-02-11T10:18:19;8;7;
69350;PMS7003;57106;51.446;-2.606;2023-02-11T10:20:43;8;7;
69350;PMS7003;57106;51.446;-2.606;2023-02-11T10:23:08;10;10;
69350;PMS7003;57106;51.446;-2.606;2023-02-11T10:25:33;9;9;
69350;PMS7003;57106;51.446;-2.606;2023-02-11T10:27:57;8;8;
69350;PMS7003;57106;51.446;-2.606;2023-02-11T10:30:25;8;7;
69350;PMS7003;57106;51.446;-2.606;2023-02-11T10:32:48;8;8;
69350;PMS7003;57106;51.446;-2.606;2023-02-11T10:35:14;8;6;
69350;PMS7003;57106;51.446;-2.606;2023-02-11T10:37:39;5;4;
69350;PMS7003;57106;51.446;-2.606;2023-02-11T10:42:31;4;4;
69350;PMS7003;57106;51.446;-2.606;2023-02-11T10:44:57;5;5;
69350;PMS7003;57106;51.446;-2.606;2023-02-11T10:47:23;8;5;
69350;PMS7003;57106;51.446;-2.606;2023-02-11T10:49:47;4;4;
69350;PMS7003;57106;51.446;-2.606;2023-02-11T10:52:14;5;4;
69350;PMS7003;57106;51.446;-2.606;2023-02-11T10:54:39;4;3;
69350;PMS7003;57106;51.446;-2.606;2023-02-11T10:57:04;2;2;
69350;PMS7003;57106;51.446;-2.606;2023-02-11T10:59:29;2;2;
69350;PMS7003;57106;51.446;-2.606;2023-02-11T11:01:55;3;2;
69350;PMS7003;57106;51.446;-2.606;2023-02-11T11:04:26;2;2;
69350;PMS7003;57106;51.446;-2.606;2023-02-11T11:06:46;4;2;
69350;PMS7003;57106;51.446;-2.606;2023-02-11T11:45:34;6;6;
69350;PMS7003;57106;51.446;-2.606;2023-02-11T11:48:00;6;6;
69350;PMS7003;57106;51.446;-2.606;2023-02-11T11:50:25;9;7;
69350;PMS7003;57106;51.446;-2.606;2023-02-11T12:02:38;6;6;
69350;PMS7003;57106;51.446;-2.606;2023-02-11T12:04:59;7;7;
69350;PMS7003;57106;51.446;-2.606;2023-02-11T12:07:25;8;7;
69350;PMS7003;57106;51.446;-2.606;2023-02-11T12:09:51;8;7;
69350;PMS7003;57106;51.446;-2.606;2023-02-11T12:12:21;11;9;
69350;PMS7003;57106;51.446;-2.606;2023-02-11T12:14:41;9;8;
69350;PMS7003;57106;51.446;-2.606;2023-02-11T12:17:06;6;6;
69350;PMS7003;57106;51.446;-2.606;2023-02-11T12:19:39;8;8;
69350;PMS7003;57106;51.446;-2.606;2023-02-11T12:21:59;9;8;
69350;PMS7003;57106;51.446;-2.606;2023-02-11T12:24:27;10;7;
69350;PMS7003;57106;51.446;-2.606;2023-02-11T12:26:48;11;8;
69350;PMS7003;57106;51.446;-2.606;2023-02-11T12:29:14;8;8;
69350;PMS7003;57106;51.446;-2.606;2023-02-11T12:31:41;8;8;
69350;PMS7003;57106;51.446;-2.606;2023-02-11T12:34:07;11;11;
69350;PMS7003;57106;51.446;-2.606;2023-02-11T12:36:33;13;13;
69350;PMS7003;57106;51.446;-2.606;2023-02-11T12:38:58;10;8;
69350;PMS7003;57106;51.446;-2.606;2023-02-11T12:41:24;9;9;
69350;PMS7003;57106;51.446;-2.606;2023-02-11T12:46:18;8;8;
69350;PMS7003;57106;51.446;-2.606;2023-02-11T12:48:41;9;9;
69350;PMS7003;57106;51.446;-2.606;2023-02-11T12:51:04;11;9;
69350;PMS7003;57106;51.446;-2.606;2023-02-11T12:53:32;11;9;
69350;PMS7003;57106;51.446;-2.606;2023-02-11T12:55:55;8;8;
69350;PMS7003;57106;51.446;-2.606;2023-02-11T12:58:19;11;11;
69350;PMS7003;57106;51.446;-2.606;2023-02-11T13:00:44;9;9;
69350;PMS7003;57106;51.446;-2.606;2023-02-11T13:03:10;12;11;
69350;PMS7003;57106;51.446;-2.606;2023-02-11T13:05:36;11;9;
69350;PMS7003;57106;51.446;-2.606;2023-02-11T13:08:01;10;9;
69350;PMS7003;57106;51.446;-2.606;2023-02-11T13:10:26;10;10;
69350;PMS7003;57106;51.446;-2.606;2023-02-11T13:12:51;9;8;
69350;PMS7003;57106;51.446;-2.606;2023-02-11T13:15:17;12;12;
69350;PMS7003;57106;51.446;-2.606;2023-02-11T13:17:44;8;8;
69350;PMS7003;57106;51.446;-2.606;2023-02-11T13:20:13;9;9;
69350;PMS7003;57106;51.446;-2.606;2023-02-11T13:22:34;13;8;
69350;PMS7003;57106;51.446;-2.606;2023-02-11T13:25:01;7;7;
69350;PMS7003;57106;51.446;-2.606;2023-02-11T13:27:28;5;4;
69350;PMS7003;57106;51.446;-2.606;2023-02-11T13:32:20;4;3;
69350;PMS7003;57106;51.446;-2.606;2023-02-11T13:39:32;2;2;
69350;PMS7003;57106;51.446;-2.606;2023-02-11T13:42:01;2;1;
69350;PMS7003;57106;51.446;-2.606;2023-02-11T13:44:24;1;1;
69350;PMS7003;57106;51.446;-2.606;2023-02-11T13:46:50;2;2;
69350;PMS7003;57106;51.446;-2.606;2023-02-11T13:49:17;0;0;
69350;PMS7003;57106;51.446;-2.606;2023-02-11T13:51:40;1;1;
69350;PMS7003;57106;51.446;-2.606;2023-02-11T13:54:05;2;2;
69350;PMS7003;57106;51.446;-2.606;2023-02-11T13:56:31;2;1;
69350;PMS7003;57106;51.446;-2.606;2023-02-11T13:58:56;1;1;
69350;PMS7003;57106;51.446;-2.606;2023-02-11T14:06:14;2;2;
69350;PMS7003;57106;51.446;-2.606;2023-02-11T14:08:37;0;0;
69350;PMS7003;57106;51.446;-2.606;2023-02-11T14:11:04;3;3;
69350;PMS7003;57106;51.446;-2.606;2023-02-11T14:13:29;1;1;
69350;PMS7003;57106;51.446;-2.606;2023-02-11T14:16:03;0;0;
69350;PMS7003;57106;51.446;-2.606;2023-02-11T14:20:45;4;4;
69350;PMS7003;57106;51.446;-2.606;2023-02-11T14:25:38;2;2;
69350;PMS7003;57106;51.446;-2.606;2023-02-11T14:28:02;4;2;
69350;PMS7003;57106;51.446;-2.606;2023-02-11T14:30:33;1;1;
69350;PMS7003;57106;51.446;-2.606;2023-02-11T14:32:57;1;1;
69350;PMS7003;57106;51.446;-2.606;2023-02-11T14:35:20;2;2;
69350;PMS7003;57106;51.446;-2.606;2023-02-11T14:37:44;2;2;
69350;PMS7003;57106;51.446;-2.606;2023-02-11T14:40:12;1;1;
69350;PMS7003;57106;51.446;-2.606;2023-02-11T14:42:34;3;3;
69350;PMS7003;57106;51.446;-2.606;2023-02-11T14:45:02;6;5;
69350;PMS7003;57106;51.446;-2.606;2023-02-11T14:47:26;7;5;
69350;PMS7003;57106;51.446;-2.606;2023-02-11T14:49:50;5;5;
69350;PMS7003;57106;51.446;-2.606;2023-02-11T14:52:20;4;4;
69350;PMS7003;57106;51.446;-2.606;2023-02-11T14:54:41;5;3;
69350;PMS7003;57106;51.446;-2.606;2023-02-11T14:57:08;4;3;
69350;PMS7003;57106;51.446;-2.606;2023-02-11T14:59:32;3;3;
69350;PMS7003;57106;51.446;-2.606;2023-02-11T15:04:25;2;2;
69350;PMS7003;57106;51.446;-2.606;2023-02-11T15:06:49;4;4;
69350;PMS7003;57106;51.446;-2.606;2023-02-11T15:09:15;3;3;
69350;PMS7003;57106;51.446;-2.606;2023-02-11T15:11:40;1;1;
69350;PMS7003;57106;51.446;-2.606;2023-02-11T15:14:06;3;2;
69350;PMS7003;57106;51.446;-2.606;2023-02-11T15:16:31;2;2;
69350;PMS7003;57106;51.446;-2.606;2023-02-11T15:18:57;0;0;
69350;PMS7003;57106;51.446;-2.606;2023-02-11T15:21:22;3;2;
69350;PMS7003;57106;51.446;-2.606;2023-02-11T15:26:13;2;2;
69350;PMS7003;57106;51.446;-2.606;2023-02-11T15:28:43;1;1;
69350;PMS7003;57106;51.446;-2.606;2023-02-11T15:31:04;2;2;
69350;PMS7003;57106;51.446;-2.606;2023-02-11T15:33:30;1;1;
69350;PMS7003;57106;51.446;-2.606;2023-02-11T15:35:55;3;2;
69350;PMS7003;57106;51.446;-2.606;2023-02-11T15:38:20;2;2;
69350;PMS7003;57106;51.446;-2.606;2023-02-11T15:40:52;2;2;
69350;PMS7003;57106;51.446;-2.606;2023-02-11T15:43:11;2;1;
69350;PMS7003;57106;51.446;-2.606;2023-02-11T15:45:37;2;2;
69350;PMS7003;57106;51.446;-2.606;2023-02-11T15:48:05;3;3;
69350;PMS7003;57106;51.446;-2.606;2023-02-11T15:50:29;4;3;
69350;PMS7003;57106;51.446;-2.606;2023-02-11T15:52:54;2;2;
69350;PMS7003;57106;51.446;-2.606;2023-02-11T15:55:19;5;4;
69350;PMS7003;57106;51.446;-2.606;2023-02-11T15:57:46;4;4;
69350;PMS7003;57106;51.446;-2.606;2023-02-11T16:00:13;3;3;
69350;PMS7003;57106;51.446;-2.606;2023-02-11T16:02:35;4;4;
69350;PMS7003;57106;51.446;-2.606;2023-02-11T16:05:03;3;3;
69350;PMS7003;57106;51.446;-2.606;2023-02-11T16:09:55;4;3;
69350;PMS7003;57106;51.446;-2.606;2023-02-11T16:12:22;3;3;
69350;PMS7003;57106;51.446;-2.606;2023-02-11T16:14:43;3;3;
69350;PMS7003;57106;51.446;-2.606;2023-02-11T16:17:10;5;5;
69350;PMS7003;57106;51.446;-2.606;2023-02-11T16:19:34;4;4;
69350;PMS7003;57106;51.446;-2.606;2023-02-11T16:22:00;4;3;
69350;PMS7003;57106;51.446;-2.606;2023-02-11T16:24:26;6;6;
69350;PMS7003;57106;51.446;-2.606;2023-02-11T16:26:52;6;5;
69350;PMS7003;57106;51.446;-2.606;2023-02-11T16:29:17;5;5;
69350;PMS7003;57106;51.446;-2.606;2023-02-11T16:31:43;6;6;
69350;PMS7003;57106;51.446;-2.606;2023-02-11T16:34:12;7;7;
69350;PMS7003;57106;51.446;-2.606;2023-02-11T16:36:34;6;6;
69350;PMS7003;57106;51.446;-2.606;2023-02-11T16:38:59;7;6;
69350;PMS7003;57106;51.446;-2.606;2023-02-11T16:43:50;7;6;
69350;PMS7003;57106;51.446;-2.606;2023-02-11T16:46:15;8;7;
69350;PMS7003;57106;51.446;-2.606;2023-02-11T16:48:42;8;7;
69350;PMS7003;57106;51.446;-2.606;2023-02-11T16:51:08;8;7;
69350;PMS7003;57106;51.446;-2.606;2023-02-11T16:53:32;5;5;
69350;PMS7003;57106;51.446;-2.606;2023-02-11T16:55:58;4;4;
69350;PMS7003;57106;51.446;-2.606;2023-02-11T16:58:23;7;7;
69350;PMS7003;57106;51.446;-2.606;2023-02-11T17:00:48;9;9;
69350;PMS7003;57106;51.446;-2.606;2023-02-11T17:03:16;5;5;
69350;PMS7003;57106;51.446;-2.606;2023-02-11T17:05:39;7;6;
69350;PMS7003;57106;51.446;-2.606;2023-02-11T17:08:05;7;7;
69350;PMS7003;57106;51.446;-2.606;2023-02-11T17:10:30;10;8;
69350;PMS7003;57106;51.446;-2.606;2023-02-11T17:12:56;9;8;
69350;PMS7003;57106;51.446;-2.606;2023-02-11T17:15:21;8;7;
69350;PMS7003;57106;51.446;-2.606;2023-02-11T17:17:47;6;6;
69350;PMS7003;57106;51.446;-2.606;2023-02-11T17:20:13;9;8;
69350;PMS7003;57106;51.446;-2.606;2023-02-11T17:22:38;9;9;
69350;PMS7003;57106;51.446;-2.606;2023-02-11T17:25:03;9;7;
69350;PMS7003;57106;51.446;-2.606;2023-02-11T18:13:35;10;10;
69350;PMS7003;57106;51.446;-2.606;2023-02-11T18:16:00;16;12;
69350;PMS7003;57106;51.446;-2.606;2023-02-11T18:18:25;15;14;
69350;PMS7003;57106;51.446;-2.606;2023-02-11T18:20:56;16;13;
69350;PMS7003;57106;51.446;-2.606;2023-02-11T18:23:16;10;9;
69350;PMS7003;57106;51.446;-2.606;2023-02-11T18:25:41;13;12;
69350;PMS7003;57106;51.446;-2.606;2023-02-11T18:28:07;14;11;
69350;PMS7003;57106;51.446;-2.606;2023-02-11T18:30:33;12;12;
69350;PMS7003;57106;51.446;-2.606;2023-02-11T18:32:58;12;12;
69350;PMS7003;57106;51.446;-2.606;2023-02-11T18:35:23;17;17;
69350;PMS7003;57106;51.446;-2.606;2023-02-11T18:37:50;19;18;
69350;PMS7003;57106;51.446;-2.606;2023-02-11T18:40:14;15;15;
69350;PMS7003;57106;51.446;-2.606;2023-02-11T18:42:39;21;19;
69350;PMS7003;57106;51.446;-2.606;2023-02-11T18:45:05;24;21;
69350;PMS7003;57106;51.446;-2.606;2023-02-11T18:47:29;22;22;
69350;PMS7003;57106;51.446;-2.606;2023-02-11T18:49:55;35;31;
69350;PMS7003;57106;51.446;-2.606;2023-02-11T18:52:20;32;32;
69350;PMS7003;57106;51.446;-2.606;2023-02-11T18:54:46;32;30;
69350;PMS7003;57106;51.446;-2.606;2023-02-11T18:57:11;30;27;
69350;PMS7003;57106;51.446;-2.606;2023-02-11T18:59:37;33;31;
69350;PMS7003;57106;51.446;-2.606;2023-02-11T19:02:02;30;29;
69350;PMS7003;57106;51.446;-2.606;2023-02-11T19:04:27;30;26;
69350;PMS7003;57106;51.446;-2.606;2023-02-11T19:06:55;29;28;
69350;PMS7003;57106;51.446;-2.606;2023-02-11T19:09:18;20;20;
69350;PMS7003;57106;51.446;-2.606;2023-02-11T19:11:43;18;17;
69350;PMS7003;57106;51.446;-2.606;2023-02-11T19:14:09;21;18;
69350;PMS7003;57106;51.446;-2.606;2023-02-11T19:16:34;22;19;
69350;PMS7003;57106;51.446;-2.606;2023-02-11T19:18:59;22;21;
69350;PMS7003;57106;51.446;-2.606;2023-02-11T19:21:24;25;24;
69350;PMS7003;57106;51.446;-2.606;2023-02-11T19:23:49;24;22;
69350;PMS7003;57106;51.446;-2.606;2023-02-11T19:26:15;20;20;
69350;PMS7003;57106;51.446;-2.606;2023-02-11T19:28:40;31;25;
69350;PMS7003;57106;51.446;-2.606;2023-02-11T19:31:06;23;23;
69350;PMS7003;57106;51.446;-2.606;2023-02-11T19:33:31;24;23;
69350;PMS7003;57106;51.446;-2.606;2023-02-11T19:36:00;24;23;
69350;PMS7003;57106;51.446;-2.606;2023-02-11T19:38:22;28;25;
69350;PMS7003;57106;51.446;-2.606;2023-02-11T19:43:13;29;27;
69350;PMS7003;57106;51.446;-2.606;2023-02-11T19:45:38;24;22;
69350;PMS7003;57106;51.446;-2.606;2023-02-11T19:48:04;27;24;
69350;PMS7003;57106;51.446;-2.606;2023-02-11T19:50:29;29;26;
69350;PMS7003;57106;51.446;-2.606;2023-02-11T19:52:55;39;37;
69350;PMS7003;57106;51.446;-2.606;2023-02-11T19:55:20;70;65;
69350;PMS7003;57106;51.446;-2.606;2023-02-11T19:57:46;51;48;
69350;PMS7003;57106;51.446;-2.606;2023-02-11T20:00:12;37;34;
69350;PMS7003;57106;51.446;-2.606;2023-02-11T20:02:37;28;28;
69350;PMS7003;57106;51.446;-2.606;2023-02-11T20:05:03;41;38;
69350;PMS7003;57106;51.446;-2.606;2023-02-11T20:07:28;36;34;
69350;PMS7003;57106;51.446;-2.606;2023-02-11T20:09:53;36;36;
69350;PMS7003;57106;51.446;-2.606;2023-02-11T20:12:18;32;32;
69350;PMS7003;57106;51.446;-2.606;2023-02-11T20:14:43;32;28;
69350;PMS7003;57106;51.446;-2.606;2023-02-11T20:17:09;28;28;
69350;PMS7003;57106;51.446;-2.606;2023-02-11T20:19:34;29;26;
69350;PMS7003;57106;51.446;-2.606;2023-02-11T20:22:00;34;29;
69350;PMS7003;57106;51.446;-2.606;2023-02-11T20:24:25;33;30;
69350;PMS7003;57106;51.446;-2.606;2023-02-11T20:26:52;31;29;
69350;PMS7003;57106;51.446;-2.606;2023-02-11T20:29:17;24;21;
69350;PMS7003;57106;51.446;-2.606;2023-02-11T20:38:57;21;19;
69350;PMS7003;57106;51.446;-2.606;2023-02-11T20:41:22;23;22;
69350;PMS7003;57106;51.446;-2.606;2023-02-11T20:43:48;25;22;
69350;PMS7003;57106;51.446;-2.606;2023-02-11T20:46:13;28;28;
69350;PMS7003;57106;51.446;-2.606;2023-02-11T20:48:38;36;32;
69350;PMS7003;57106;51.446;-2.606;2023-02-11T20:51:04;25;22;
69350;PMS7003;57106;51.446;-2.606;2023-02-11T20:53:29;22;22;
69350;PMS7003;57106;51.446;-2.606;2023-02-11T20:55:55;21;21;
69350;PMS7003;57106;51.446;-2.606;2023-02-11T20:58:20;23;21;
69350;PMS7003;57106;51.446;-2.606;2023-02-11T21:00:45;32;27;
69350;PMS7003;57106;51.446;-2.606;2023-02-11T21:03:11;25;24;
69350;PMS7003;57106;51.446;-2.606;2023-02-11T21:05:36;27;24;
69350;PMS7003;57106;51.446;-2.606;2023-02-11T21:08:01;23;23;
69350;PMS7003;57106;51.446;-2.606;2023-02-11T21:10:26;26;24;
69350;PMS7003;57106;51.446;-2.606;2023-02-11T21:12:51;26;25;
69350;PMS7003;57106;51.446;-2.606;2023-02-11T21:15:17;23;22;
69350;PMS7003;57106;51.446;-2.606;2023-02-11T21:17:42;30;27;
69350;PMS7003;57106;51.446;-2.606;2023-02-11T21:20:07;30;28;
69350;PMS7003;57106;51.446;-2.606;2023-02-11T21:22:32;30;28;
69350;PMS7003;57106;51.446;-2.606;2023-02-11T21:24:58;27;26;
69350;PMS7003;57106;51.446;-2.606;2023-02-11T21:27:24;31;26;
69350;PMS7003;57106;51.446;-2.606;2023-02-11T21:29:50;32;29;
69350;PMS7003;57106;51.446;-2.606;2023-02-11T21:32:14;29;28;
69350;PMS7003;57106;51.446;-2.606;2023-02-11T21:34:39;27;24;
69350;PMS7003;57106;51.446;-2.606;2023-02-11T21:37:04;31;27;
69350;PMS7003;57106;51.446;-2.606;2023-02-11T21:39:29;27;25;
69350;PMS7003;57106;51.446;-2.606;2023-02-11T21:41:55;25;25;
69350;PMS7003;57106;51.446;-2.606;2023-02-11T21:44:20;27;26;
69350;PMS7003;57106;51.446;-2.606;2023-02-11T21:46:46;33;31;
69350;PMS7003;57106;51.446;-2.606;2023-02-11T21:49:12;33;30;
69350;PMS7003;57106;51.446;-2.606;2023-02-11T21:51:36;29;28;
69350;PMS7003;57106;51.446;-2.606;2023-02-11T21:54:01;29;27;
69350;PMS7003;57106;51.446;-2.606;2023-02-11T21:56:27;33;32;
69350;PMS7003;57106;51.446;-2.606;2023-02-11T21:58:52;39;38;
69350;PMS7003;57106;51.446;-2.606;2023-02-11T22:01:18;41;36;
69350;PMS7003;57106;51.446;-2.606;2023-02-11T22:03:43;34;32;
69350;PMS7003;57106;51.446;-2.606;2023-02-11T22:13:23;27;25;
69350;PMS7003;57106;51.446;-2.606;2023-02-11T22:18:14;32;30;
69350;PMS7003;57106;51.446;-2.606;2023-02-11T22:23:05;34;31;
69350;PMS7003;57106;51.446;-2.606;2023-02-11T22:25:30;29;28;
69350;PMS7003;57106;51.446;-2.606;2023-02-11T22:27:55;37;32;
69350;PMS7003;57106;51.446;-2.606;2023-02-11T22:30:20;37;35;
69350;PMS7003;57106;51.446;-2.606;2023-02-11T22:32:45;31;31;
69350;PMS7003;57106;51.446;-2.606;2023-02-11T22:35:11;34;31;
69350;PMS7003;57106;51.446;-2.606;2023-02-11T22:37:36;37;34;
69350;PMS7003;57106;51.446;-2.606;2023-02-11T22:44:58;31;28;
69350;PMS7003;57106;51.446;-2.606;2023-02-11T22:47:19;25;24;
69350;PMS7003;57106;51.446;-2.606;2023-02-11T22:49:44;26;24;
69350;PMS7003;57106;51.446;-2.606;2023-02-11T22:52:09;29;28;
69350;PMS7003;57106;51.446;-2.606;2023-02-11T22:54:40;26;26;
69350;PMS7003;57106;51.446;-2.606;2023-02-11T22:57:00;27;27;
69350;PMS7003;57106;51.446;-2.606;2023-02-11T22:59:25;26;24;
69350;PMS7003;57106;51.446;-2.606;2023-02-11T23:01:51;30;27;
69350;PMS7003;57106;51.446;-2.606;2023-02-11T23:04:16;26;23;
69350;PMS7003;57106;51.446;-2.606;2023-02-11T23:09:08;27;27;
69350;PMS7003;57106;51.446;-2.606;2023-02-11T23:11:33;26;25;
69350;PMS7003;57106;51.446;-2.606;2023-02-11T23:13:59;28;27;
69350;PMS7003;57106;51.446;-2.606;2023-02-11T23:16:24;30;29;
69350;PMS7003;57106;51.446;-2.606;2023-02-11T23:18:49;28;27;
69350;PMS7003;57106;51.446;-2.606;2023-02-11T23:21:15;30;28;
69350;PMS7003;57106;51.446;-2.606;2023-02-11T23:23:39;28;26;
69350;PMS7003;57106;51.446;-2.606;2023-02-11T23:26:07;26;26;
69350;PMS7003;57106;51.446;-2.606;2023-02-11T23:28:30;28;28;
69350;PMS7003;57106;51.446;-2.606;2023-02-11T23:30:56;27;26;
69350;PMS7003;57106;51.446;-2.606;2023-02-11T23:33:21;34;32;
69350;PMS7003;57106;51.446;-2.606;2023-02-11T23:35:47;33;33;
69350;PMS7003;57106;51.446;-2.606;2023-02-11T23:45:29;33;30;
69350;PMS7003;57106;51.446;-2.606;2023-02-11T23:47:55;28;25;
69350;PMS7003;57106;51.446;-2.606;2023-02-11T23:50:20;25;24;
69350;PMS7003;57106;51.446;-2.606;2023-02-11T23:52:46;33;30;
69350;PMS7003;57106;51.446;-2.606;2023-02-11T23:55:11;32;30;
69350;PMS7003;57106;51.446;-2.606;2023-02-11T23:57:37;28;26;
